createdAt,value
2022-08-28T00:01:46.454Z,20.40
2022-08-28T00:05:29.745Z,20.30
2022-08-28T00:10:07.834Z,20.30
2022-08-28T00:13:50.236Z,20.20
2022-08-28T00:17:32.063Z,20.20
2022-08-28T00:21:33.965Z,20.20
2022-08-28T00:25:16.141Z,20.10
2022-08-28T00:29:18.775Z,20.10
2022-08-28T00:33:23.168Z,20.10
2022-08-28T00:37:05.015Z,20.10
2022-08-28T00:41:07.789Z,20.00
2022-08-28T00:44:49.573Z,20.00
2022-08-28T00:48:31.432Z,20.00
2022-08-28T00:52:16.143Z,20.00
2022-08-28T00:55:58.597Z,19.90
2022-08-28T01:00:18.161Z,19.90
2022-08-28T01:04:01.590Z,19.90
2022-08-28T01:07:43.424Z,19.80
2022-08-28T01:12:21.665Z,19.70
2022-08-28T01:16:04.077Z,19.70
2022-08-28T01:20:07.446Z,19.60
2022-08-28T01:24:00.093Z,19.50
2022-08-28T01:27:42.168Z,19.50
2022-08-28T01:31:44.969Z,19.40
2022-08-28T01:35:29.610Z,19.30
2022-08-28T01:39:16.403Z,19.30
2022-08-28T01:43:16.368Z,19.20
2022-08-28T01:46:58.633Z,19.20
2022-08-28T01:51:38.201Z,19.10
2022-08-28T01:55:20.689Z,19.10
2022-08-28T01:59:42.418Z,19.00
2022-08-28T02:03:25.483Z,18.90
2022-08-28T02:07:07.279Z,18.90
2022-08-28T02:16:12.180Z,18.70
2022-08-28T02:20:50.350Z,18.70
2022-08-28T02:24:32.129Z,18.60
2022-08-28T02:28:14.341Z,18.60
2022-08-28T02:31:56.392Z,18.50
2022-08-28T02:35:40.251Z,18.50
2022-08-28T02:39:22.169Z,18.40
2022-08-28T02:43:05.049Z,18.40
2022-08-28T02:46:46.854Z,18.30
2022-08-28T02:50:31.480Z,18.30
2022-08-28T02:54:13.277Z,18.30
2022-08-28T02:57:56.835Z,18.30
2022-08-28T03:01:58.703Z,18.20
2022-08-28T03:05:40.503Z,18.20
2022-08-28T03:10:18.741Z,18.20
2022-08-28T03:14:03.385Z,18.10
2022-08-28T03:17:45.232Z,18.10
2022-08-28T03:21:31.921Z,18.10
2022-08-28T03:25:14.374Z,18.00
2022-08-28T03:29:52.638Z,18.00
2022-08-28T03:33:34.807Z,18.00
2022-08-28T03:37:16.647Z,18.00
2022-08-28T03:40:59.810Z,17.90
2022-08-28T03:44:41.570Z,17.90
2022-08-28T03:48:24.340Z,17.80
2022-08-28T03:52:06.350Z,17.80
2022-08-28T03:55:48.260Z,17.80
2022-08-28T03:59:54.053Z,17.70
2022-08-28T04:03:36.244Z,17.70
2022-08-28T04:07:18.698Z,17.70
2022-08-28T04:11:06.036Z,17.60
2022-08-28T04:14:48.086Z,17.60
2022-08-28T04:18:30.312Z,17.60
2022-08-28T04:22:55.242Z,17.60
2022-08-28T04:26:37.128Z,17.50
2022-08-28T04:31:15.458Z,17.50
2022-08-28T04:34:57.304Z,17.50
2022-08-28T04:38:43.653Z,17.50
2022-08-28T04:42:25.993Z,17.40
2022-08-28T04:46:10.297Z,17.50
2022-08-28T04:50:30.664Z,17.40
2022-08-28T04:54:13.061Z,17.40
2022-08-28T04:57:54.827Z,17.40
2022-08-28T05:02:33.014Z,17.40
2022-08-28T05:06:15.578Z,17.40
2022-08-28T05:10:21.274Z,17.40
2022-08-28T05:14:07.177Z,17.30
2022-08-28T05:17:49.159Z,17.30
2022-08-28T05:21:52.687Z,17.30
2022-08-28T05:25:42.790Z,17.30
2022-08-28T05:30:21.028Z,17.30
2022-08-28T05:34:02.950Z,17.30
2022-08-28T05:37:44.961Z,17.30
2022-08-28T05:41:29.361Z,17.20
2022-08-28T05:45:13.401Z,17.20
2022-08-28T05:48:57.575Z,17.20
2022-08-28T05:52:40.649Z,17.20
2022-08-28T05:56:24.529Z,17.30
2022-08-28T06:00:12.936Z,17.30
2022-08-28T06:03:59.815Z,17.40
2022-08-28T06:07:41.801Z,17.40
2022-08-28T06:11:26.829Z,17.50
2022-08-28T06:15:09.134Z,17.60
2022-08-28T06:19:47.392Z,17.60
2022-08-28T06:23:29.270Z,17.60
2022-08-28T06:27:11.091Z,17.70
2022-08-28T06:31:49.299Z,17.70
2022-08-28T06:35:31.361Z,17.80
2022-08-28T06:39:13.630Z,17.90
2022-08-28T06:42:55.409Z,17.90
2022-08-28T06:46:37.174Z,18.00
2022-08-28T06:50:23.365Z,18.00
2022-08-28T06:54:05.514Z,18.10
2022-08-28T06:57:47.306Z,18.10
2022-08-28T07:01:53.618Z,18.20
2022-08-28T07:05:35.550Z,18.40
2022-08-28T07:10:13.522Z,18.50
2022-08-28T07:13:56.221Z,18.70
2022-08-28T07:17:38.302Z,18.80
2022-08-28T07:21:24.401Z,18.80
2022-08-28T07:25:07.434Z,18.90
2022-08-28T07:29:29.264Z,19.00
2022-08-28T07:33:11.093Z,19.10
2022-08-28T07:36:52.930Z,19.10
2022-08-28T07:40:34.739Z,19.20
2022-08-28T07:44:35.245Z,19.30
2022-08-28T07:48:17.699Z,19.30
2022-08-28T07:52:06.419Z,19.40
2022-08-28T07:55:51.514Z,19.50
2022-08-28T08:00:15.154Z,19.60
2022-08-28T08:04:01.181Z,19.60
2022-08-28T08:07:43.958Z,19.70
2022-08-28T08:12:06.787Z,19.70
2022-08-28T08:15:48.720Z,19.80
2022-08-28T08:19:32.338Z,19.90
2022-08-28T08:23:14.036Z,20.00
2022-08-28T08:27:00.152Z,20.20
2022-08-28T08:30:43.816Z,20.30
2022-08-28T08:34:25.867Z,20.50
2022-08-28T08:38:10.050Z,20.60
2022-08-28T08:41:57.646Z,20.70
2022-08-28T08:45:39.542Z,20.90
2022-08-28T08:50:17.843Z,21.00
2022-08-28T08:54:12.117Z,21.10
2022-08-28T08:57:59.397Z,21.30
2022-08-28T09:02:01.301Z,21.30
2022-08-28T09:05:48.009Z,21.40
2022-08-28T09:10:26.309Z,21.50
2022-08-28T09:14:20.698Z,21.60
2022-08-28T09:18:29.110Z,21.70
2022-08-28T09:23:12.659Z,21.80
2022-08-28T09:26:59.511Z,21.90
2022-08-28T09:31:04.290Z,22.00
2022-08-28T09:35:15.529Z,22.00
2022-08-28T09:39:10.129Z,22.10
2022-08-28T09:43:55.479Z,22.20
2022-08-28T09:47:50.681Z,22.30
2022-08-28T09:51:54.607Z,22.40
2022-08-28T09:55:37.708Z,22.50
2022-08-28T09:59:39.464Z,22.60
2022-08-28T10:03:46.899Z,22.60
2022-08-28T10:08:01.693Z,22.70
2022-08-28T10:12:21.701Z,22.80
2022-08-28T10:16:03.789Z,22.80
2022-08-28T10:20:07.833Z,22.90
2022-08-28T10:24:02.466Z,22.80
2022-08-28T10:27:50.075Z,22.90
2022-08-28T10:31:33.306Z,22.90
2022-08-28T10:35:37.968Z,22.90
2022-08-28T10:39:57.464Z,22.90
2022-08-28T10:43:45.558Z,23.00
2022-08-28T10:47:29.907Z,23.00
2022-08-28T10:51:35.439Z,23.00
2022-08-28T10:55:28.031Z,23.10
2022-08-28T10:59:52.654Z,23.10
2022-08-28T11:03:49.537Z,23.20
2022-08-28T11:07:34.948Z,23.30
2022-08-28T11:11:38.229Z,23.30
2022-08-28T11:15:36.363Z,23.40
2022-08-28T11:19:44.960Z,23.40
2022-08-28T11:23:51.905Z,23.50
2022-08-28T11:27:36.482Z,23.50
2022-08-28T11:31:29.040Z,23.50
2022-08-28T11:35:29.394Z,23.50
2022-08-28T11:39:19.777Z,23.60
2022-08-28T11:43:16.948Z,23.60
2022-08-28T11:47:34.556Z,23.60
2022-08-28T11:51:49.798Z,23.70
2022-08-28T11:55:46.802Z,23.70
2022-08-28T11:59:38.990Z,23.80
2022-08-28T12:03:37.116Z,23.90
2022-08-28T12:07:20.199Z,24.00
2022-08-28T12:11:03.147Z,24.10
2022-08-28T12:14:44.902Z,24.30
2022-08-28T12:18:43.090Z,24.40
2022-08-28T12:22:39.463Z,24.60
2022-08-28T12:26:47.286Z,24.80
2022-08-28T12:31:42.314Z,24.90
2022-08-28T12:35:26.005Z,25.10
2022-08-28T12:39:26.640Z,25.20
2022-08-28T12:43:10.505Z,25.40
2022-08-28T12:46:52.316Z,25.50
2022-08-28T12:50:38.264Z,25.60
2022-08-28T12:54:20.014Z,25.80
2022-08-28T12:58:01.856Z,25.90
2022-08-28T13:02:21.979Z,26.10
2022-08-28T13:06:05.570Z,26.20
2022-08-28T13:09:52.334Z,26.30
2022-08-28T13:13:45.280Z,26.40
2022-08-28T13:17:45.851Z,26.40
2022-08-28T13:22:24.030Z,26.50
2022-08-28T13:26:06.848Z,26.50
2022-08-28T13:30:20.765Z,26.40
2022-08-28T13:34:19.397Z,26.40
2022-08-28T13:38:03.449Z,26.30
2022-08-28T13:41:47.466Z,26.40
2022-08-28T13:45:36.291Z,26.40
2022-08-28T13:49:27.676Z,26.40
2022-08-28T13:53:09.517Z,26.40
2022-08-28T13:56:51.637Z,26.40
2022-08-28T14:00:36.177Z,26.40
2022-08-28T14:04:17.948Z,26.40
2022-08-28T14:07:59.703Z,26.30
2022-08-28T14:11:42.280Z,26.30
2022-08-28T14:15:24.219Z,26.20
2022-08-28T14:19:06.488Z,26.20
2022-08-28T14:22:48.435Z,26.20
2022-08-28T14:26:30.378Z,26.20
2022-08-28T14:30:12.554Z,26.20
2022-08-28T14:33:54.933Z,26.30
2022-08-28T14:37:36.709Z,26.30
2022-08-28T14:41:18.510Z,26.40
2022-08-28T14:45:00.317Z,26.50
2022-08-28T14:48:42.138Z,26.70
2022-08-28T14:52:23.902Z,27.00
2022-08-28T14:56:07.853Z,27.20
2022-08-28T14:59:51.922Z,27.40
2022-08-28T15:03:33.926Z,27.60
2022-08-28T15:07:15.710Z,28.00
2022-08-28T15:10:57.591Z,28.20
2022-08-28T15:14:39.391Z,28.20
2022-08-28T15:18:22.216Z,28.00
2022-08-28T15:22:05.273Z,28.00
2022-08-28T15:25:46.950Z,27.90
2022-08-28T15:29:30.024Z,28.00
2022-08-28T15:33:12.092Z,28.40
2022-08-28T15:36:55.095Z,29.00
2022-08-28T15:40:56.018Z,30.00
2022-08-28T15:44:37.850Z,30.90
2022-08-28T15:48:19.882Z,31.60
2022-08-28T15:52:01.786Z,32.20
2022-08-28T15:55:45.858Z,32.50
2022-08-28T15:59:48.586Z,32.30
2022-08-28T16:03:31.113Z,31.90
2022-08-28T16:07:12.903Z,31.30
2022-08-28T16:10:56.267Z,30.90
2022-08-28T16:14:38.103Z,30.60
2022-08-28T16:18:19.937Z,30.40
2022-08-28T16:22:01.973Z,30.30
2022-08-28T16:25:43.805Z,30.10
2022-08-28T16:29:44.563Z,30.00
2022-08-28T16:33:27.071Z,30.10
2022-08-28T16:37:08.875Z,30.40
2022-08-28T16:40:50.722Z,30.70
2022-08-28T16:44:32.497Z,30.80
2022-08-28T16:48:14.873Z,31.10
2022-08-28T16:52:01.922Z,31.40
2022-08-28T16:55:46.928Z,31.60
2022-08-28T16:59:31.073Z,31.80
2022-08-28T17:03:13.044Z,32.00
2022-08-28T17:06:54.955Z,32.20
2022-08-28T17:10:37.428Z,32.40
2022-08-28T17:14:20.430Z,32.40
2022-08-28T17:18:02.274Z,32.30
2022-08-28T17:22:03.462Z,32.20
2022-08-28T17:25:45.685Z,32.40
2022-08-28T17:29:31.828Z,32.40
2022-08-28T17:33:13.950Z,32.40
2022-08-28T17:36:55.753Z,32.50
2022-08-28T17:40:37.822Z,32.20
2022-08-28T17:44:19.662Z,31.80
2022-08-28T17:48:01.798Z,31.20
2022-08-28T17:52:04.768Z,30.70
2022-08-28T17:55:46.628Z,30.10
2022-08-28T17:59:28.641Z,29.60
2022-08-28T18:03:10.454Z,29.10
2022-08-28T18:06:54.461Z,28.50
2022-08-28T18:10:56.700Z,28.10
2022-08-28T18:14:38.499Z,27.70
2022-08-28T18:18:20.372Z,27.40
2022-08-28T18:23:05.099Z,27.10
2022-08-28T18:26:47.800Z,26.70
2022-08-28T18:31:10.638Z,26.40
2022-08-28T18:34:52.507Z,26.10
2022-08-28T18:38:35.522Z,25.90
2022-08-28T18:42:17.289Z,25.70
2022-08-28T18:46:00.476Z,25.50
2022-08-28T18:50:01.702Z,25.30
2022-08-28T18:53:47.077Z,25.20
2022-08-28T18:57:32.481Z,25.00
2022-08-28T19:01:34.506Z,24.90
2022-08-28T19:05:16.473Z,24.70
2022-08-28T19:09:00.679Z,24.60
2022-08-28T19:12:42.444Z,24.50
2022-08-28T19:16:24.260Z,24.30
2022-08-28T19:20:10.283Z,24.20
2022-08-28T19:23:55.817Z,24.10
2022-08-28T19:27:38.574Z,24.00
2022-08-28T19:31:22.529Z,23.90
2022-08-28T19:35:04.678Z,23.80
2022-08-28T19:38:46.581Z,23.70
2022-08-28T19:42:28.782Z,23.70
2022-08-28T19:46:18.446Z,23.60
2022-08-28T19:50:23.195Z,23.60
2022-08-28T19:54:05.022Z,23.50
2022-08-28T19:57:48.369Z,23.40
2022-08-28T20:01:51.074Z,23.40
2022-08-28T20:05:32.977Z,23.30
2022-08-28T20:10:11.170Z,23.30
2022-08-28T20:13:53.558Z,23.20
2022-08-28T20:17:35.493Z,23.20
2022-08-28T20:22:08.728Z,23.10
2022-08-28T20:25:51.248Z,23.10
2022-08-28T20:29:56.154Z,23.00
2022-08-28T20:33:38.065Z,23.00
2022-08-28T20:37:19.852Z,22.90
2022-08-28T20:41:09.637Z,22.90
2022-08-28T20:44:51.515Z,22.80
2022-08-28T20:48:33.829Z,22.80
2022-08-28T20:52:16.821Z,22.80
2022-08-28T20:55:59.628Z,22.70
2022-08-28T20:59:44.235Z,22.70
2022-08-28T21:03:28.313Z,22.60
2022-08-28T21:07:10.560Z,22.60
2022-08-28T21:11:30.201Z,22.50
2022-08-28T21:15:12.558Z,22.50
2022-08-28T21:19:14.590Z,22.40
2022-08-28T21:22:57.359Z,22.40
2022-08-28T21:26:43.898Z,22.30
2022-08-28T21:30:29.556Z,22.20
2022-08-28T21:34:12.001Z,22.20
2022-08-28T21:37:53.768Z,22.10
2022-08-28T21:41:54.290Z,22.10
2022-08-28T21:45:36.177Z,22.00
2022-08-28T21:49:38.946Z,22.00
2022-08-28T21:53:20.923Z,21.90
2022-08-28T21:57:05.723Z,21.80
2022-08-28T22:10:38.535Z,21.60
2022-08-28T22:14:29.785Z,21.50
2022-08-28T22:18:18.998Z,21.40
2022-08-28T22:22:57.196Z,21.30
2022-08-28T22:26:46.924Z,21.30
2022-08-28T22:31:26.707Z,21.20
2022-08-28T22:35:11.959Z,21.20
2022-08-28T22:44:27.121Z,21.10
2022-08-28T22:48:12.015Z,21.00
2022-08-28T22:52:49.985Z,21.00
2022-08-28T22:56:40.482Z,20.90
2022-08-28T23:01:19.410Z,20.90
2022-08-28T23:05:15.725Z,20.80
2022-08-28T23:09:39.646Z,20.80
2022-08-28T23:13:22.072Z,20.80
2022-08-28T23:17:10.520Z,20.70
2022-08-28T23:21:53.359Z,20.70
2022-08-28T23:25:37.772Z,20.70
2022-08-28T23:30:18.699Z,20.60
2022-08-28T23:34:34.706Z,20.60
2022-08-28T23:38:17.516Z,20.50
2022-08-28T23:42:55.589Z,20.50
2022-08-28T23:46:41.382Z,20.40
2022-08-28T23:51:20.222Z,20.40
2022-08-28T23:55:06.381Z,20.40
